»·PEaware :: N7DJ KPHX-KSBD

N7DJ :: KPHX-KSBD

FLIGHT INFORMATION

Flight Status: Arrived
Operator: Privately registered:
United States
More flights under this callsign
Pilot: Don J. (45483)
Aircraft: CANADAIR CL-600 CHALLENGER
(CL60)
More flights by this aircraft type
Origin: KPHX Phoenix Sky Harbor Intl
United States
Destination: KSBD San Bernardino Intl
United States
More flights between these airports :: More routes between these airports
Route: KEENS2 HRRBR CURIV J212 DECAS PSP SETER5
File this flight plan on PilotEdge
Remarks: RMK / SIMBRIEF
Altitude:
(Current/Filed)
36,000ft
Speed:
(Current/Filed)
463kts
Departed: 13-Nov-23 12:37 PM
Arrived: 13-Nov-23 01:32 PM
Distance/Time
Traveled:
264nm/0:55
Distance/Time
To Go:
Arrived

Flight Plot

Page will automatically refresh every two minutes.

Flight plan parsing failed; only flown route is shown


Map Options




Map Legend


Flown Route
Filed Route
Departure Airport
Arrival Airport
Navaid (VOR, NDB)
Fix

Horizontal Profiles

Position Reports

Time Latitude Longitude Heading Altitude Ground
Speed
13-Nov-23 12:03 33.426192 -112.020929 90 1117ft 0kts
13-Nov-23 12:03 33.426192 -112.020929 90 1117ft 0kts
13-Nov-23 12:07 33.426192 -112.020929 90 1117ft 0kts
13-Nov-23 12:08 33.426192 -112.020929 90 1117ft 0kts
13-Nov-23 12:09 33.426192 -112.020929 90 1117ft 0kts
13-Nov-23 12:11 33.426192 -112.020929 90 1117ft 0kts
13-Nov-23 12:12 33.426192 -112.020929 90 1117ft 0kts
13-Nov-23 12:14 33.426192 -112.020929 90 1117ft 0kts
13-Nov-23 12:15 33.426192 -112.020929 90 1117ft 0kts
13-Nov-23 12:16 33.426192 -112.020929 90 1117ft 0kts
13-Nov-23 12:18 33.426192 -112.020929 90 1117ft 0kts
13-Nov-23 12:22 33.426192 -112.020929 90 1117ft 0kts
13-Nov-23 12:22 33.426192 -112.020929 90 1117ft 0kts
13-Nov-23 12:23 33.426192 -112.020929 90 1117ft 0kts
13-Nov-23 12:24 33.426192 -112.020929 90 1117ft 0kts
13-Nov-23 12:25 33.426192 -112.020929 90 1117ft 0kts
13-Nov-23 12:26 33.426192 -112.020929 90 1117ft 0kts
13-Nov-23 12:27 33.426192 -112.020929 90 1117ft 0kts
13-Nov-23 12:28 33.426192 -112.020929 90 1117ft 0kts
13-Nov-23 12:29 33.426192 -112.020929 90 1117ft 0kts
13-Nov-23 12:30 33.426271 -112.020758 32 1117ft 3kts
13-Nov-23 12:31 33.427748 -112.023057 269 1117ft 16kts
13-Nov-23 12:32 33.427774 -112.026684 294 1113ft 7kts
13-Nov-23 12:33 33.427900 -112.026790 345 1113ft 0kts
13-Nov-23 12:34 33.427900 -112.026790 345 1113ft 0kts
13-Nov-23 12:35 33.428760 -112.026823 46 1113ft 7kts
13-Nov-23 12:36 33.428900 -112.009816 91 1370ft 162kts
13-Nov-23 12:37 33.431671 -111.945300 88 4537ft 208kts
13-Nov-23 12:38 33.431818 -111.875650 116 7537ft 216kts
13-Nov-23 12:39 33.380891 -111.847092 204 10170ft 226kts
13-Nov-23 12:40 33.353934 -111.909232 274 12292ft 242kts
13-Nov-23 12:41 33.361783 -111.994836 273 14423ft 301kts
13-Nov-23 12:42 33.377085 -112.104943 277 16504ft 346kts
13-Nov-23 12:43 33.394024 -112.219276 277 18588ft 352kts
13-Nov-23 12:44 33.411180 -112.335961 277 20640ft 359kts
13-Nov-23 12:45 33.428591 -112.455115 278 22668ft 366kts
13-Nov-23 12:46 33.446260 -112.576879 277 24643ft 375kts
13-Nov-23 12:47 33.451486 -112.702897 268 26578ft 381kts
13-Nov-23 12:48 33.457898 -112.830421 280 28502ft 391kts
13-Nov-23 12:49 33.482104 -112.959121 279 30406ft 399kts
13-Nov-23 12:50 33.506670 -113.091079 279 31915ft 410kts
13-Nov-23 12:51 33.531570 -113.225703 279 33340ft 417kts
13-Nov-23 12:52 33.556756 -113.362791 279 34436ft 423kts
13-Nov-23 12:53 33.581601 -113.498746 279 35533ft 413kts
13-Nov-23 12:54 33.606533 -113.632591 279 36149ft 408kts
13-Nov-23 12:55 33.631081 -113.764765 279 36156ft 403kts
13-Nov-23 12:56 33.655312 -113.896145 278 36192ft 407kts
13-Nov-23 12:57 33.680007 -114.030748 278 36174ft 414kts
13-Nov-23 12:58 33.704589 -114.165504 278 36168ft 412kts
13-Nov-23 12:59 33.728975 -114.300121 278 36168ft 411kts
13-Nov-23 13:00 33.753112 -114.434212 278 36196ft 411kts
13-Nov-23 13:01 33.774719 -114.569122 271 36171ft 407kts
13-Nov-23 13:02 33.782389 -114.704645 270 36176ft 405kts
13-Nov-23 13:03 33.790007 -114.839542 270 36174ft 403kts
13-Nov-23 13:04 33.797508 -114.974154 270 36203ft 403kts
13-Nov-23 13:05 33.804892 -115.108739 270 36143ft 402kts
13-Nov-23 13:06 33.812112 -115.242794 270 36184ft 402kts
13-Nov-23 13:07 33.819236 -115.377998 269 35464ft 408kts
13-Nov-23 13:08 33.826292 -115.514316 269 33770ft 411kts
13-Nov-23 13:09 33.833290 -115.652942 269 32023ft 420kts
13-Nov-23 13:10 33.840262 -115.793754 269 30273ft 422kts
13-Nov-23 13:11 33.847025 -115.933210 269 28523ft 413kts
13-Nov-23 13:12 33.853470 -116.069551 269 26809ft 404kts
13-Nov-23 13:13 33.859644 -116.203413 268 25042ft 397kts
13-Nov-23 13:14 33.865560 -116.334753 269 23031ft 388kts
13-Nov-23 13:15 33.871330 -116.462737 269 20977ft 378kts
13-Nov-23 13:16 33.877267 -116.587364 269 18966ft 370kts
13-Nov-23 13:17 33.882963 -116.709639 268 16901ft 363kts
13-Nov-23 13:18 33.888446 -116.830778 267 14872ft 355kts
13-Nov-23 13:19 33.834836 -116.914035 211 14197ft 332kts
13-Nov-23 13:20 33.754376 -116.973779 211 12958ft 335kts
13-Nov-23 13:21 33.676231 -117.032479 211 11340ft 312kts
13-Nov-23 13:22 33.630009 -117.102036 278 9846ft 284kts
13-Nov-23 13:23 33.697757 -117.146149 351 8810ft 305kts
13-Nov-23 13:24 33.780695 -117.160032 351 7750ft 296kts
13-Nov-23 13:25 33.861383 -117.174256 351 6707ft 287kts
13-Nov-23 13:26 33.937718 -117.188180 351 5662ft 259kts
13-Nov-23 13:27 33.999143 -117.199585 351 5199ft 204kts
13-Nov-23 13:28 34.055323 -117.202630 24 4603ft 199kts
13-Nov-23 13:29 34.097928 -117.174224 338 3311ft 187kts
13-Nov-23 13:30 34.097421 -117.227487 252 1154ft 150kts
13-Nov-23 13:31 34.093584 -117.240520 250 1111ft 16kts
13-Nov-23 13:32 34.094580 -117.242080 352 1106ft 1kts
13-Nov-23 13:33 34.095215 -117.241568 101 1108ft 3kts
13-Nov-23 13:34 34.095980 -117.239583 35 1113ft 10kts
13-Nov-23 13:35 34.098970 -117.238256 330 1118ft 16kts
13-Nov-23 13:36 34.103077 -117.241074 327 1115ft 10kts
13-Nov-23 13:37 34.104324 -117.244879 268 1109ft 11kts
13-Nov-23 13:38 34.104542 -117.245786 51 1108ft 0kts
13-Nov-23 13:39 34.104542 -117.245786 51 1108ft 0kts

Navigation Log

Ident Type
Flight plan parsing failed, navigation log unavailable